Hovedside
METAR-TAF:

METAR-TAF

Lufthavner :

Gibraltar lufthavn

Gibraltar, Gibraltar

breddegrad: 36-09N, lengdegrad: 005-21W, høyde over havet: 5 m

Gjeldene værobservasjon

Denne rapporten ble laget for 1 time og 3 minutter siden, klokken 18:50 UTC
Vind 6 kt fra Sør-sørvest
Temperatur 26°C
Luftfuktighet 51%
Trykk 1014 hPa
Sikt 10 km eller mer
ingen skyer under 1500 m og ingen bygeskyer

METAR: LXGB 161850Z 21006KT CAVOK 26/15 Q1014 NOSIG

Tid: 21:53 (19:53 UTC)

Varsel

Denne rapporten ble laget for 3 timer og 33 minutter siden, klokken 16:20 UTC
Varsel gyldig fra 16. klokken 18 UTC til 16. klokken 22 UTC
Vind 13 kt fra Sør-sørvest
Sikt 10 km eller mer
Få skyer i en høyde av 3000 ft
Blir
fra 16. klokken 18 UTC til 16. klokken 20 UTC
Vind 12 kt fra Vest-sørvest

TAF: LXGB 161620Z 1618/1622 20013KT 9999 FEW030 520001 BECMG 1618/1620 25012KT 50////

Værobservasjoner og værvarsel for over 4000 flyplasser (METAR- og TAF-rapporter).

Tilgjengelige stasjoner er representert av de røde og gule prikkene på kartet.

Hold musepekeren over prikken for å se navnet på stasjonen.

Klikk så for å se værobservasjoner og -varsler.

For å forandre kartet kan du klikke på den grønne knappen med svart kryss for å zoome inn, på den grønne knappen med strek for å zoome ut, eller på de grønne pilene for å se tilstøtende kart.


METAR-TAF: